Osceola, IA

6:24 AM CST on March 03, 2015 (GMT -0600)
Creston Municipal | Change Station
CLOSE
Current Station
Airport
Location: Creston,
Elevation: 1293 ft
Nearby Weather Stations

Elev 1293 ft 41.02 °N, 94.36 °W | Updated 9 minutes ago

Overcast
Overcast
32 °F
Feels Like 21 °F
N
17
Wind Variable Wind from South

Today
High -- | Low -- °F
--% Chance of Precip.
Yesterday
High -- | Low -- °F
Precip. -- in
6:46 AM 6:08 PM
Waxing Gibbous, 96% visible
Pressure 29.67 in
Visibility 1.0 miles
Clouds Overcast 300 ft
Windchill 21 °F
Dew Point 32 °F
Humidity 100%
Rainfall 0.00 in
Snow Depth Not available.
UV 0 out of 12
Pollen .20 out of 12
Air Quality Not available.
Flu Activity Not available.
METAR KCSQ 031215Z AUTO 19015KT 1SM BR OVC003 M00/M00 A2967 RMK AO2

More Conditions Fewer Conditions

Pressure 29.67 in
Visibility 1.0 miles
Clouds Overcast 300 ft
Windchill 21 °F
Dew Point 32 °F
Humidity 100%
Rainfall 0.00 in
Snow Depth Not available.
UV 0 out of 12
Pollen .20 out of 12
Air Quality Not available.
Flu Activity Not available.
METAR KCSQ 031215Z AUTO 19015KT 1SM BR OVC003 M00/M00 A2967 RMK AO2

More Conditions Fewer Conditions

10-Day Weather Forecast

Almanac

Astronomy

Mar. 03, 2015 Rise Set
Actual Time
Civil Twilight
Nautical Twilight
Astronomical Twilight
Moon
Length of Visible Light
Length of Day
Tomorrow will be .
, % of the Moon is Illuminated

Today's Extremes

State Highs State Lows

Community

WunderPhotos

Upload Photos

1,802,095 photos uploaded!

WunderBlogs® & News

Nearby

Air Quality

  Air Quality AQ Index Pollutant
Not available.

Snow Depth

Station Depth Elevation

Earthquake Activity

City Distance Mag. Time & Date
Minimum magnitude displayed is 2.5.

Coastal Water Temperatures

Place Temperature

Nearby Weather Stations